Time;durP1;ratioP1;P1;durP2;ratioP2;P2;SDS_P1;SDS_P2;PMS_P1;PMS_P2;Temp;Humidity;BMP_temperature;BMP_pressure;BME280_temperature;BME280_humidity;BME280_pressure;Samples;Min_cycle;Max_cycle;Signal;HPM_P1;HPM_P2
2024/01/11 00:01:38;;;;;;;12.13;2.53;;;-4.00;99.90;;;;;;5082512;28;20432;-81
2024/01/11 00:04:04;;;;;;;3.80;3.23;;;-4.00;99.90;;;;;;5082656;28;20445;-81
2024/01/11 00:06:33;;;;;;;3.70;2.83;;;-4.10;99.90;;;;;;5082332;28;20497;-81
2024/01/11 00:08:59;;;;;;;2.00;1.13;;;-4.10;99.90;;;;;;5082250;28;20481;-81
2024/01/11 00:11:26;;;;;;;0.67;0.67;;;-4.10;99.90;;;;;;5082374;28;20838;-81
2024/01/11 00:13:53;;;;;;;1.97;1.97;;;-4.10;99.90;;;;;;5082080;28;20487;-81
2024/01/11 00:16:19;;;;;;;5.97;3.07;;;-4.10;99.90;;;;;;5081576;28;20457;-81
2024/01/11 00:18:46;;;;;;;3.53;3.03;;;-4.10;99.90;;;;;;5081319;28;20453;-81
2024/01/11 00:21:13;;;;;;;1.70;1.70;;;-4.10;99.90;;;;;;5080650;28;20441;-81
2024/01/11 00:23:41;;;;;;;2.93;2.10;;;-4.10;99.90;;;;;;5081080;28;20898;-81
2024/01/11 00:26:07;;;;;;;0.93;0.77;;;-4.10;99.90;;;;;;5080548;28;20441;-81
2024/01/11 00:28:34;;;;;;;0.90;0.90;;;-4.10;99.90;;;;;;5080361;28;20459;-80
2024/01/11 00:31:01;;;;;;;7.63;3.50;;;-4.10;99.90;;;;;;5080215;28;20449;-81
2024/01/11 00:33:27;;;;;;;4.83;1.63;;;-4.10;99.90;;;;;;5081066;28;20427;-81
2024/01/11 00:35:54;;;;;;;2.13;1.80;;;-4.10;99.90;;;;;;5079813;28;20427;-81
2024/01/11 00:38:21;;;;;;;1.83;1.73;;;-4.10;99.90;;;;;;5079603;28;20960;-81
2024/01/11 00:40:49;;;;;;;3.57;2.77;;;-4.10;99.90;;;;;;5094955;28;20403;-81
2024/01/11 00:43:16;;;;;;;2.27;1.30;;;-4.10;99.90;;;;;;5100337;28;20446;-81
2024/01/11 00:45:43;;;;;;;2.87;1.80;;;-4.10;99.90;;;;;;5091231;28;20426;-81
2024/01/11 00:48:10;;;;;;;1.50;1.40;;;-4.10;99.90;;;;;;5078758;28;20484;-81
2024/01/11 00:50:36;;;;;;;5.63;2.83;;;-4.10;99.90;;;;;;5078792;28;20430;-81
2024/01/11 00:53:03;;;;;;;1.63;1.47;;;-4.10;99.90;;;;;;5078430;28;20822;-81
2024/01/11 00:55:30;;;;;;;2.30;1.80;;;-4.10;99.90;;;;;;5078238;28;20523;-81
2024/01/11 00:57:58;;;;;;;1.63;1.40;;;-4.10;99.90;;;;;;5078467;28;20936;-80
2024/01/11 01:00:25;;;;;;;0.73;0.73;;;-4.10;99.90;;;;;;5078434;28;20456;-80
2024/01/11 01:02:51;;;;;;;2.63;2.40;;;-4.10;99.90;;;;;;5077659;28;20448;-80
2024/01/11 01:05:18;;;;;;;5.57;2.20;;;-4.20;99.90;;;;;;5077645;28;20476;-80
2024/01/11 01:07:45;;;;;;;2.97;1.43;;;-4.20;99.90;;;;;;5077676;28;20493;-81
2024/01/11 01:10:12;;;;;;;2.17;1.97;;;-4.20;99.90;;;;;;5078089;28;20423;-80
2024/01/11 01:12:39;;;;;;;6.80;3.30;;;-4.30;99.90;;;;;;5077034;28;20880;-80
2024/01/11 01:15:08;;;;;;;4.40;2.53;;;-4.30;99.90;;;;;;5077244;28;20452;-80
2024/01/11 01:17:35;;;;;;;4.27;2.43;;;-4.30;99.90;;;;;;5077182;28;20415;-80
2024/01/11 01:20:03;;;;;;;3.40;3.20;;;-4.30;99.90;;;;;;5077219;28;20416;-80
2024/01/11 01:22:29;;;;;;;8.63;3.50;;;-4.30;99.90;;;;;;5076575;28;20422;-81
2024/01/11 01:24:56;;;;;;;1.40;1.30;;;-4.40;99.90;;;;;;5080479;28;20837;-81
2024/01/11 01:27:23;;;;;;;2.13;2.03;;;-4.40;99.90;;;;;;5079873;28;20481;-81
2024/01/11 01:29:50;;;;;;;2.40;1.73;;;-4.40;99.90;;;;;;5079329;28;20484;-81
2024/01/11 01:32:18;;;;;;;2.13;1.20;;;-4.30;99.90;;;;;;5079298;28;20420;-81
2024/01/11 01:34:44;;;;;;;4.40;0.80;;;-4.30;99.90;;;;;;5079534;28;20443;-81
2024/01/11 01:37:11;;;;;;;1.57;1.53;;;-4.30;99.90;;;;;;5079086;28;20437;-80
2024/01/11 01:39:39;;;;;;;1.80;1.70;;;-4.30;99.90;;;;;;5079195;28;20439;-81
2024/01/11 01:42:06;;;;;;;1.10;1.00;;;-4.40;99.90;;;;;;5078891;28;20448;-81
2024/01/11 01:44:33;;;;;;;1.43;1.43;;;-4.40;99.90;;;;;;5078866;28;20416;-80
2024/01/11 01:47:00;;;;;;;2.30;1.87;;;-4.40;99.90;;;;;;5078344;28;20431;-81
2024/01/11 01:49:28;;;;;;;6.83;1.67;;;-4.40;99.90;;;;;;5078553;28;20465;-80
2024/01/11 01:51:56;;;;;;;1.20;1.20;;;-4.40;99.90;;;;;;5078101;28;20455;-81
2024/01/11 01:54:24;;;;;;;5.70;2.57;;;-4.40;99.90;;;;;;5079537;28;20415;-81
2024/01/11 01:56:53;;;;;;;2.53;2.33;;;-4.40;99.90;;;;;;5081294;28;20440;-81
2024/01/11 01:59:21;;;;;;;14.97;1.90;;;-4.40;99.90;;;;;;5081269;28;20469;-81
2024/01/11 02:01:48;;;;;;;1.37;1.27;;;-4.40;99.90;;;;;;5081460;28;20453;-81
2024/01/11 02:04:15;;;;;;;1.63;1.53;;;-4.40;99.90;;;;;;5081199;28;20412;-81
2024/01/11 02:06:47;;;;;;;0.77;0.77;;;-4.40;99.90;;;;;;5081016;28;20477;-81
2024/01/11 02:09:14;;;;;;;2.40;1.90;;;-4.40;99.90;;;;;;5080764;28;20489;-81
2024/01/11 02:11:42;;;;;;;8.73;2.03;;;-4.40;99.90;;;;;;5080335;28;20451;-80
2024/01/11 02:14:09;;;;;;;2.60;1.30;;;-4.40;99.90;;;;;;5080038;28;20921;-81
2024/01/11 02:16:36;;;;;;;3.10;2.50;;;-4.40;99.90;;;;;;5079987;28;20423;-81
2024/01/11 02:19:03;;;;;;;2.50;2.10;;;-4.40;99.90;;;;;;5079449;28;20848;-80
2024/01/11 02:21:31;;;;;;;5.90;1.63;;;-4.40;99.90;;;;;;5079745;28;20415;-81
2024/01/11 02:24:04;;;;;;;1.50;1.40;;;-4.40;99.90;;;;;;5079640;28;20422;-81
2024/01/11 02:26:31;;;;;;;10.10;2.37;;;-4.40;99.90;;;;;;5079793;28;20407;-80
2024/01/11 02:28:58;;;;;;;4.63;3.57;;;-4.40;99.90;;;;;;5078637;28;20466;-81
2024/01/11 02:31:25;;;;;;;3.50;3.30;;;-4.40;99.90;;;;;;5078931;28;20464;-80
2024/01/11 02:33:52;;;;;;;1.33;1.13;;;-4.40;99.90;;;;;;5078118;28;20492;-80
2024/01/11 02:36:20;;;;;;;0.87;0.87;;;-4.40;99.90;;;;;;5078197;28;20416;-80
2024/01/11 02:38:47;;;;;;;2.10;1.13;;;-4.50;99.90;;;;;;5077690;28;20442;-80
2024/01/11 02:41:17;;;;;;;2.30;1.63;;;-4.50;99.90;;;;;;5077652;28;20431;-80
2024/01/11 02:43:48;;;;;;;1.03;1.00;;;-4.60;99.90;;;;;;5078587;28;20437;-80
2024/01/11 02:46:15;;;;;;;2.67;2.57;;;-4.60;99.90;;;;;;5077487;28;20483;-80
2024/01/11 02:48:41;;;;;;;2.47;2.23;;;-4.60;99.90;;;;;;5077404;28;20499;-80
2024/01/11 02:51:08;;;;;;;2.60;2.40;;;-4.70;99.90;;;;;;5077437;28;20426;-81
2024/01/11 02:53:35;;;;;;;1.47;1.00;;;-4.70;99.90;;;;;;5077227;28;20440;-80
2024/01/11 02:56:02;;;;;;;2.40;2.00;;;-4.70;99.90;;;;;;5076971;28;20404;-81
2024/01/11 02:58:30;;;;;;;1.17;0.93;;;-4.70;99.90;;;;;;5076717;28;20428;-80
2024/01/11 03:00:56;;;;;;;1.20;1.20;;;-4.70;99.90;;;;;;5077285;28;20444;-80
2024/01/11 03:03:23;;;;;;;2.73;2.53;;;-4.60;99.90;;;;;;5076549;28;20441;-80
2024/01/11 03:05:50;;;;;;;8.33;2.17;;;-4.60;99.90;;;;;;5076719;28;20430;-80
2024/01/11 03:08:17;;;;;;;4.03;1.27;;;-4.70;99.90;;;;;;5077609;28;20469;-80
2024/01/11 03:10:43;;;;;;;2.97;1.73;;;-4.70;99.90;;;;;;5080069;28;20448;-80
2024/01/11 03:13:10;;;;;;;3.50;2.60;;;-4.70;99.90;;;;;;5080692;28;20452;-80
2024/01/11 03:15:38;;;;;;;1.37;1.37;;;-4.70;99.90;;;;;;5080095;28;20445;-80
2024/01/11 03:18:05;;;;;;;2.80;1.27;;;-4.70;99.90;;;;;;5079801;28;20464;-80
2024/01/11 03:20:32;;;;;;;2.00;1.80;;;-4.70;99.90;;;;;;5079671;28;20420;-80
2024/01/11 03:22:59;;;;;;;1.63;1.10;;;-4.70;99.90;;;;;;5079776;28;20428;-80
2024/01/11 03:25:25;;;;;;;0.40;0.40;;;-4.80;99.90;;;;;;5079025;28;20443;-80
2024/01/11 03:27:52;;;;;;;1.77;1.77;;;-4.80;99.90;;;;;;5079197;28;20473;-80
2024/01/11 03:30:19;;;;;;;13.53;4.00;;;-4.80;99.90;;;;;;5079361;28;20422;-80
2024/01/11 03:32:47;;;;;;;12.70;2.20;;;-4.80;99.90;;;;;;5079517;28;20947;-81
2024/01/11 03:35:14;;;;;;;4.43;1.80;;;-4.70;99.90;;;;;;5079015;28;20453;-80
2024/01/11 03:37:41;;;;;;;2.87;2.70;;;-4.80;99.90;;;;;;5078812;28;20415;-80
2024/01/11 03:40:08;;;;;;;1.43;1.43;;;-4.80;99.90;;;;;;5078957;28;20452;-80
2024/01/11 03:42:35;;;;;;;0.93;0.93;;;-4.70;99.90;;;;;;5078714;28;20444;-80
2024/01/11 03:45:01;;;;;;;0.70;0.70;;;-4.70;99.90;;;;;;5083071;28;20445;-81
2024/01/11 03:47:28;;;;;;;0.70;0.70;;;-4.70;99.90;;;;;;5098760;28;20445;-81
2024/01/11 03:49:56;;;;;;;15.63;2.10;;;-4.80;99.90;;;;;;5099914;28;20465;-81
2024/01/11 03:52:23;;;;;;;0.87;0.87;;;-4.80;99.90;;;;;;5083796;28;20444;-80
2024/01/11 03:54:50;;;;;;;4.90;2.23;;;-4.80;99.90;;;;;;5081575;28;20441;-81
2024/01/11 03:57:17;;;;;;;4.63;4.13;;;-4.80;99.90;;;;;;5079830;28;20949;-80
2024/01/11 03:59:44;;;;;;;3.10;2.87;;;-4.80;99.90;;;;;;5081132;28;20436;-81
2024/01/11 04:02:11;;;;;;;3.07;2.87;;;-4.80;99.90;;;;;;5083882;28;20449;-81
2024/01/11 04:04:38;;;;;;;4.00;1.47;;;-4.80;99.90;;;;;;5084046;28;20420;-81
2024/01/11 04:07:06;;;;;;;2.03;1.93;;;-4.90;99.90;;;;;;5083087;28;20476;-81
2024/01/11 04:09:33;;;;;;;1.70;1.10;;;-4.90;99.90;;;;;;5083130;28;20911;-81
2024/01/11 04:12:00;;;;;;;3.27;2.57;;;-4.80;99.90;;;;;;5083244;28;20419;-81
2024/01/11 04:14:26;;;;;;;1.00;1.00;;;-4.80;99.90;;;;;;5082819;28;20448;-81
2024/01/11 04:16:53;;;;;;;10.83;1.53;;;-4.70;99.90;;;;;;5082368;28;20452;-80
2024/01/11 04:19:20;;;;;;;2.30;2.20;;;-4.70;99.90;;;;;;5081422;28;20462;-81
2024/01/11 04:21:47;;;;;;;0.60;0.60;;;-4.80;99.90;;;;;;5081363;28;20449;-81
2024/01/11 04:24:15;;;;;;;0.97;0.83;;;-4.80;99.90;;;;;;5082007;28;20794;-81
2024/01/11 04:26:42;;;;;;;12.20;2.20;;;-4.80;99.90;;;;;;5081503;28;20424;-81
2024/01/11 04:29:09;;;;;;;1.47;1.47;;;-4.90;99.90;;;;;;5081417;28;20819;-80
2024/01/11 04:31:35;;;;;;;4.53;3.43;;;-4.90;99.90;;;;;;5081128;28;20420;-80
2024/01/11 04:34:02;;;;;;;0.57;0.57;;;-4.90;99.90;;;;;;5080952;28;20449;-80
2024/01/11 04:36:29;;;;;;;2.40;2.17;;;-5.00;99.90;;;;;;5081066;28;20926;-81
2024/01/11 04:38:55;;;;;;;1.53;1.43;;;-5.00;99.90;;;;;;5080159;28;20444;-80
2024/01/11 04:41:24;;;;;;;2.80;2.27;;;-5.00;99.90;;;;;;5080501;28;20446;-81
2024/01/11 04:43:50;;;;;;;0.83;0.83;;;-5.00;99.90;;;;;;5080331;28;20469;-80
2024/01/11 04:46:18;;;;;;;3.40;2.63;;;-5.00;99.90;;;;;;5080162;28;20445;-81
2024/01/11 04:48:45;;;;;;;10.50;2.17;;;-4.90;99.90;;;;;;5079068;28;20476;-81
2024/01/11 04:51:13;;;;;;;2.00;1.90;;;-5.00;99.90;;;;;;5080365;28;20801;-80
2024/01/11 04:53:40;;;;;;;0.30;0.30;;;-5.00;99.90;;;;;;5079110;28;20440;-80
2024/01/11 04:56:07;;;;;;;1.63;1.07;;;-5.00;99.90;;;;;;5078545;28;20433;-80
2024/01/11 04:58:36;;;;;;;1.10;1.10;;;-5.00;99.90;;;;;;5078917;28;20463;-80
2024/01/11 05:01:03;;;;;;;3.77;2.40;;;-5.10;99.90;;;;;;5079046;28;20430;-80
2024/01/11 05:03:31;;;;;;;1.83;1.77;;;-5.00;99.90;;;;;;5078327;28;20414;-81
2024/01/11 05:05:58;;;;;;;1.60;1.33;;;-5.00;99.90;;;;;;5079181;28;20444;-81
2024/01/11 05:08:25;;;;;;;1.47;1.40;;;-5.00;99.90;;;;;;5077368;28;20493;-81
2024/01/11 05:10:52;;;;;;;2.87;2.67;;;-5.10;99.90;;;;;;5077774;28;20424;-81
2024/01/11 05:13:18;;;;;;;2.70;1.90;;;-4.90;99.90;;;;;;5078016;28;20422;-80
2024/01/11 05:15:47;;;;;;;0.60;0.60;;;-4.90;99.90;;;;;;5078589;28;20792;-81
2024/01/11 05:18:14;;;;;;;2.83;2.00;;;-4.90;99.90;;;;;;5077645;28;20985;-80
2024/01/11 05:20:41;;;;;;;3.37;2.33;;;-4.90;99.90;;;;;;5077517;28;20426;-81
2024/01/11 05:23:08;;;;;;;2.20;2.10;;;-4.90;99.90;;;;;;5077559;28;20464;-81
2024/01/11 05:25:35;;;;;;;1.80;1.53;;;-4.90;99.90;;;;;;5076835;28;20415;-81
2024/01/11 05:28:03;;;;;;;2.40;2.03;;;-4.90;99.90;;;;;;5076937;28;20440;-81
2024/01/11 05:30:29;;;;;;;0.60;0.47;;;-4.90;99.90;;;;;;5076993;28;20485;-81
2024/01/11 05:32:57;;;;;;;0.40;0.40;;;-4.90;99.90;;;;;;5077262;28;20427;-81
2024/01/11 05:35:27;;;;;;;1.70;1.63;;;-4.90;99.90;;;;;;5077159;28;20447;-81
2024/01/11 05:37:54;;;;;;;2.00;1.50;;;-4.90;99.90;;;;;;5077321;28;20465;-81
2024/01/11 05:40:21;;;;;;;11.37;1.90;;;-4.90;99.90;;;;;;5077392;28;20422;-81
2024/01/11 05:42:48;;;;;;;5.33;4.30;;;-4.90;99.90;;;;;;5076716;28;20469;-81
2024/01/11 05:45:16;;;;;;;3.77;2.73;;;-5.00;99.90;;;;;;5076474;28;20440;-81
2024/01/11 05:47:43;;;;;;;0.50;0.50;;;-5.00;99.90;;;;;;5076777;28;20424;-81
2024/01/11 05:50:12;;;;;;;12.33;4.53;;;-5.10;99.90;;;;;;5076273;28;20459;-81
2024/01/11 05:52:38;;;;;;;0.87;0.87;;;-5.10;99.90;;;;;;5076196;28;20415;-80
2024/01/11 05:55:05;;;;;;;3.87;1.47;;;-5.10;99.90;;;;;;5076300;28;20445;-80
2024/01/11 05:57:32;;;;;;;6.27;2.23;;;-5.20;99.90;;;;;;5076299;28;20430;-81
2024/01/11 05:59:59;;;;;;;3.20;1.60;;;-5.20;99.90;;;;;;5079538;28;20974;-81
2024/01/11 06:02:26;;;;;;;3.37;1.37;;;-5.20;99.90;;;;;;5083435;28;20423;-81
2024/01/11 06:04:52;;;;;;;3.60;1.87;;;-5.20;99.90;;;;;;5082305;28;20429;-81
2024/01/11 06:07:21;;;;;;;0.80;0.80;;;-5.30;99.90;;;;;;5081141;28;20458;-81
2024/01/11 06:09:52;;;;;;;1.60;1.50;;;-5.30;99.90;;;;;;5081120;28;20463;-81
2024/01/11 06:12:21;;;;;;;0.60;0.60;;;-5.30;99.90;;;;;;5080629;28;20494;-81
2024/01/11 06:14:48;;;;;;;4.47;2.70;;;-5.20;99.90;;;;;;5080025;28;20448;-81
2024/01/11 06:17:15;;;;;;;3.03;2.83;;;-5.20;99.90;;;;;;5081111;28;20937;-80
2024/01/11 06:19:42;;;;;;;1.27;1.23;;;-5.20;99.90;;;;;;5080930;28;20833;-80
2024/01/11 06:22:08;;;;;;;2.93;1.80;;;-5.10;99.90;;;;;;5080064;28;20440;-80
2024/01/11 06:24:36;;;;;;;2.10;0.93;;;-5.20;99.90;;;;;;5080146;28;20808;-80
2024/01/11 06:27:03;;;;;;;1.03;1.03;;;-5.30;99.90;;;;;;5080168;28;20444;-80
2024/01/11 06:29:30;;;;;;;1.00;1.00;;;-3.80;99.90;;;;;;5080151;28;21020;-80
2024/01/11 06:31:57;;;;;;;2.83;2.63;;;-5.30;99.90;;;;;;5080036;28;20404;-80
2024/01/11 06:34:24;;;;;;;1.43;0.90;;;-5.30;99.90;;;;;;5080187;28;20441;-80
2024/01/11 06:36:50;;;;;;;3.60;2.23;;;-5.30;99.90;;;;;;5079827;28;20415;-80
2024/01/11 06:39:17;;;;;;;3.87;1.40;;;-5.30;99.90;;;;;;5079527;28;20461;-80
2024/01/11 06:41:45;;;;;;;1.30;1.20;;;-5.30;99.90;;;;;;5080119;28;20805;-80
2024/01/11 06:44:12;;;;;;;3.63;2.37;;;-5.40;99.90;;;;;;5082032;28;20451;-80
2024/01/11 06:46:41;;;;;;;0.90;0.90;;;-5.30;99.90;;;;;;5083698;28;20897;-80
2024/01/11 06:49:08;;;;;;;1.87;1.77;;;-5.30;99.90;;;;;;5083505;28;20451;-80
2024/01/11 06:51:35;;;;;;;1.97;0.70;;;-5.30;99.90;;;;;;5083748;28;20420;-80
2024/01/11 06:54:02;;;;;;;3.10;2.90;;;-5.20;99.90;;;;;;5083669;28;20445;-80
2024/01/11 06:56:29;;;;;;;3.07;1.50;;;-5.30;99.90;;;;;;5083212;28;20422;-80
2024/01/11 06:58:57;;;;;;;0.80;0.80;;;-5.30;99.90;;;;;;5082978;28;20457;-80
2024/01/11 07:01:24;;;;;;;0.80;0.80;;;-5.30;99.90;;;;;;5083446;28;20448;-81
2024/01/11 07:03:50;;;;;;;0.93;0.93;;;-5.30;99.90;;;;;;5083076;28;20453;-80
2024/01/11 07:06:17;;;;;;;5.03;2.50;;;-5.30;99.90;;;;;;5082791;28;20458;-80
2024/01/11 07:08:44;;;;;;;4.93;2.00;;;-5.30;99.90;;;;;;5083153;28;20439;-80
2024/01/11 07:11:11;;;;;;;1.37;0.83;;;-5.30;99.90;;;;;;5082797;28;20444;-80
2024/01/11 07:13:37;;;;;;;1.60;1.60;;;-5.30;99.90;;;;;;5082569;28;20431;-80
2024/01/11 07:16:06;;;;;;;0.93;0.83;;;-5.30;99.90;;;;;;5082354;28;20469;-80
2024/01/11 07:18:33;;;;;;;2.13;1.90;;;-5.20;99.90;;;;;;5082239;28;20465;-80
2024/01/11 07:21:00;;;;;;;2.10;1.90;;;-5.20;99.90;;;;;;5082273;28;20445;-80
2024/01/11 07:23:27;;;;;;;2.40;1.43;;;-5.20;99.90;;;;;;5082251;28;20466;-80
2024/01/11 07:25:54;;;;;;;2.07;1.97;;;-5.30;99.90;;;;;;5082717;28;20410;-80
2024/01/11 07:28:25;;;;;;;0.77;0.77;;;-5.30;99.90;;;;;;5081756;28;20989;-80
2024/01/11 07:30:52;;;;;;;3.07;2.63;;;-5.20;99.90;;;;;;5081422;28;20465;-80
2024/01/11 07:33:20;;;;;;;1.90;1.80;;;-5.20;99.90;;;;;;5081868;28;20522;-81
2024/01/11 07:35:47;;;;;;;1.07;1.07;;;-5.20;99.90;;;;;;5081114;28;20422;-80
2024/01/11 07:38:13;;;;;;;8.90;2.00;;;-5.30;99.90;;;;;;5080933;28;20469;-80
2024/01/11 07:40:40;;;;;;;1.80;1.70;;;-5.30;99.90;;;;;;5081436;28;20444;-80
2024/01/11 07:43:07;;;;;;;0.73;0.73;;;-5.30;99.90;;;;;;5081754;28;20501;-80
2024/01/11 07:45:34;;;;;;;2.40;2.23;;;-5.30;99.90;;;;;;5081585;28;20445;-80
2024/01/11 07:48:03;;;;;;;3.70;2.93;;;-5.20;99.90;;;;;;5081077;28;20460;-80
2024/01/11 07:50:31;;;;;;;1.93;1.53;;;-5.20;99.90;;;;;;5080702;28;21056;-80
2024/01/11 07:52:57;;;;;;;2.70;2.50;;;-5.20;99.90;;;;;;5082493;28;20415;-80
2024/01/11 07:55:24;;;;;;;8.97;3.90;;;-5.20;99.90;;;;;;5080818;28;20423;-80
2024/01/11 07:57:51;;;;;;;0.73;0.60;;;-5.10;99.90;;;;;;5082191;28;20464;-80
2024/01/11 08:00:18;;;;;;;0.50;0.50;;;-5.10;99.90;;;;;;5081536;28;20444;-80
2024/01/11 08:02:44;;;;;;;2.10;2.00;;;-5.00;99.90;;;;;;5082528;28;20459;-81
2024/01/11 08:05:11;;;;;;;3.07;1.13;;;-4.90;99.90;;;;;;5084520;28;20412;-80
2024/01/11 08:07:39;;;;;;;0.90;0.67;;;-4.90;99.90;;;;;;5084001;28;20471;-81
2024/01/11 08:10:08;;;;;;;3.47;1.90;;;-4.90;99.90;;;;;;5084351;28;20456;-80
2024/01/11 08:12:35;;;;;;;3.83;1.83;;;-4.90;99.90;;;;;;5083868;28;20457;-80
2024/01/11 08:15:02;;;;;;;3.03;2.73;;;-4.90;99.90;;;;;;5083975;28;20430;-80
2024/01/11 08:17:29;;;;;;;1.73;1.63;;;-4.80;99.90;;;;;;5084169;28;20419;-80
2024/01/11 08:19:56;;;;;;;0.83;0.83;;;-4.70;99.90;;;;;;5083575;28;20441;-80
2024/01/11 08:22:23;;;;;;;3.47;3.33;;;-4.70;99.90;;;;;;5083829;28;20447;-80
2024/01/11 08:24:51;;;;;;;14.47;2.53;;;-4.70;99.90;;;;;;5082701;28;20423;-80
2024/01/11 08:27:17;;;;;;;4.00;3.67;;;-4.80;99.90;;;;;;5083109;28;20514;-80
2024/01/11 08:29:46;;;;;;;3.80;2.57;;;-4.80;99.90;;;;;;5082443;28;20884;-80
2024/01/11 08:32:13;;;;;;;2.80;1.90;;;-4.70;99.90;;;;;;5081956;28;20434;-80
2024/01/11 08:34:40;;;;;;;11.20;2.53;;;-4.60;99.90;;;;;;5082698;28;20437;-80
2024/01/11 08:37:06;;;;;;;2.47;2.37;;;-4.50;99.90;;;;;;5082220;28;20787;-80
2024/01/11 08:39:33;;;;;;;2.17;2.03;;;-4.40;99.90;;;;;;5082111;28;20464;-80
2024/01/11 08:42:01;;;;;;;0.87;0.77;;;-4.40;99.90;;;;;;5080689;28;20480;-80
2024/01/11 08:44:28;;;;;;;3.37;2.97;;;-4.20;99.90;;;;;;5080919;28;20420;-80
2024/01/11 08:46:57;;;;;;;1.03;0.90;;;-4.20;99.90;;;;;;5080973;28;20412;-80
2024/01/11 08:49:24;;;;;;;1.23;0.77;;;-4.20;99.90;;;;;;5080596;28;20481;-80
2024/01/11 08:51:51;;;;;;;1.03;1.03;;;-4.10;99.90;;;;;;5080343;28;20424;-80
2024/01/11 08:54:20;;;;;;;2.27;2.17;;;-4.00;99.90;;;;;;5081164;28;20411;-80
2024/01/11 08:56:47;;;;;;;1.67;1.60;;;-3.90;99.90;;;;;;5080730;28;20488;-80
2024/01/11 08:59:15;;;;;;;2.20;2.00;;;-3.90;99.90;;;;;;5080160;28;20573;-80
2024/01/11 09:01:42;;;;;;;8.93;2.13;;;-3.80;99.90;;;;;;5080561;28;20441;-80
2024/01/11 09:04:09;;;;;;;3.40;1.90;;;-3.70;99.90;;;;;;5080299;28;20446;-80
2024/01/11 09:06:36;;;;;;;4.73;1.57;;;-3.60;99.90;;;;;;5079624;28;20493;-80
2024/01/11 09:09:02;;;;;;;6.53;4.33;;;-3.50;99.90;;;;;;5078443;28;20443;-80
2024/01/11 09:11:29;;;;;;;1.03;1.03;;;-3.50;99.90;;;;;;5080476;28;20448;-80
2024/01/11 09:13:57;;;;;;;17.17;2.23;;;-3.40;99.90;;;;;;5078696;28;20762;-80
2024/01/11 09:16:25;;;;;;;0.40;0.40;;;-3.30;99.90;;;;;;5079327;28;20431;-80
2024/01/11 09:18:52;;;;;;;4.00;1.50;;;-3.30;99.90;;;;;;5079605;28;20805;-80
2024/01/11 09:21:18;;;;;;;3.13;2.83;;;-3.10;99.90;;;;;;5078981;28;20471;-80
2024/01/11 09:23:45;;;;;;;2.20;0.90;;;-3.00;99.90;;;;;;5078606;28;20448;-80
2024/01/11 09:26:13;;;;;;;3.07;2.73;;;-2.90;99.90;;;;;;5078119;28;20449;-80
2024/01/11 09:28:40;;;;;;;5.80;1.57;;;-2.80;99.90;;;;;;5078011;28;20974;-80
2024/01/11 09:31:06;;;;;;;2.20;2.10;;;-2.60;99.90;;;;;;5079181;28;20968;-80
2024/01/11 09:33:35;;;;;;;2.20;2.03;;;-2.50;99.90;;;;;;5078168;28;20419;-80
2024/01/11 09:36:02;;;;;;;1.83;1.73;;;-2.30;99.90;;;;;;5078967;28;20400;-80
2024/01/11 09:38:29;;;;;;;5.43;2.00;;;-1.90;99.90;;;;;;5078813;28;20981;-80
2024/01/11 09:41:04;;;;;;;5.07;2.50;;;-1.60;99.90;;;;;;5078916;28;20432;-80
2024/01/11 09:43:33;;;;;;;2.30;2.20;;;-1.10;99.90;;;;;;5077550;28;20514;-80
2024/01/11 09:46:03;;;;;;;3.07;2.43;;;-0.50;99.90;;;;;;5076272;28;20898;-83
2024/01/11 09:48:31;;;;;;;2.67;2.47;;;-0.20;99.90;;;;;;5075937;28;20445;-80
2024/01/11 09:51:01;;;;;;;2.10;2.00;;;0.30;99.90;;;;;;5076358;28;20477;-80
2024/01/11 09:53:29;;;;;;;4.30;3.43;;;0.60;99.90;;;;;;5076184;28;20440;-80
2024/01/11 09:55:57;;;;;;;9.97;3.83;;;1.00;99.90;;;;;;5076832;28;20425;-80
2024/01/11 09:58:24;;;;;;;24.10;4.90;;;1.50;99.90;;;;;;5076686;28;20491;-80
2024/01/11 10:00:55;;;;;;;12.30;5.07;;;2.10;99.90;;;;;;5077584;28;20807;-80
2024/01/11 10:03:23;;;;;;;6.90;4.30;;;2.90;99.90;;;;;;5078337;28;20772;-80
2024/01/11 10:05:51;;;;;;;12.20;5.97;;;3.90;99.90;;;;;;5077537;28;20444;-80
2024/01/11 10:08:22;;;;;;;22.57;4.77;;;4.70;99.90;;;;;;5078940;28;20465;-81
2024/01/11 10:10:49;;;;;;;8.50;5.13;;;5.80;99.90;;;;;;5079695;28;20461;-81
2024/01/11 10:13:16;;;;;;;12.70;5.83;;;6.80;99.90;;;;;;5079030;28;20448;-81
2024/01/11 10:15:42;;;;;;;15.03;6.73;;;7.40;99.90;;;;;;5079548;28;20842;-81
2024/01/11 10:18:09;;;;;;;9.80;4.57;;;8.00;99.90;;;;;;5078662;28;20457;-81
2024/01/11 10:20:36;;;;;;;11.63;6.33;;;7.90;99.90;;;;;;5079276;28;20445;-81
2024/01/11 10:23:04;;;;;;;13.50;5.47;;;7.40;99.90;;;;;;5078838;28;20445;-81
2024/01/11 10:25:32;;;;;;;11.37;5.80;;;6.60;99.90;;;;;;5079629;28;20445;-81
2024/01/11 10:27:59;;;;;;;16.17;8.10;;;5.70;99.90;;;;;;5079818;28;20465;-81
2024/01/11 10:30:26;;;;;;;5.80;3.40;;;4.90;99.90;;;;;;5078886;28;20481;-80
2024/01/11 10:32:53;;;;;;;7.90;4.70;;;4.20;99.90;;;;;;5079485;28;20540;-80
2024/01/11 10:35:21;;;;;;;8.40;4.03;;;3.60;99.90;;;;;;5079062;28;20449;-80
2024/01/11 10:37:53;;;;;;;9.20;5.50;;;3.00;99.90;;;;;;5078990;28;20449;-80
2024/01/11 10:40:24;;;;;;;11.17;5.00;;;2.50;99.90;;;;;;5079389;28;20426;-80
2024/01/11 10:42:53;;;;;;;11.90;3.57;;;2.20;99.90;;;;;;5078684;28;20507;-80
2024/01/11 10:45:21;;;;;;;11.23;4.93;;;2.00;99.90;;;;;;5079210;28;20441;-80
2024/01/11 10:47:52;;;;;;;7.20;3.50;;;1.70;99.90;;;;;;5078643;28;20814;-82
2024/01/11 10:50:20;;;;;;;10.97;5.53;;;1.50;99.90;;;;;;5083282;28;20519;-79
2024/01/11 10:53:03;;;;;;;10.67;4.33;;;1.40;99.90;;;;;;5085319;28;20467;-79
2024/01/11 10:55:32;;;;;;;11.50;5.40;;;1.20;99.90;;;;;;5081589;28;20521;-80
2024/01/11 10:58:01;;;;;;;16.93;6.23;;;1.20;99.90;;;;;;5078268;28;20472;-80
2024/01/11 11:00:29;;;;;;;5.47;3.67;;;1.10;99.90;;;;;;5076466;28;20449;-81
2024/01/11 11:02:57;;;;;;;10.60;3.97;;;0.90;99.90;;;;;;5076701;28;20459;-80
2024/01/11 11:05:26;;;;;;;15.50;4.43;;;0.80;99.90;;;;;;5076150;28;20449;-81
2024/01/11 11:07:55;;;;;;;11.03;4.97;;;0.70;99.90;;;;;;5075590;28;20491;-81
2024/01/11 11:10:22;;;;;;;10.63;3.80;;;0.80;99.90;;;;;;5076613;28;20852;-80
2024/01/11 11:12:50;;;;;;;12.90;5.60;;;0.70;99.90;;;;;;5077200;28;20456;-80
2024/01/11 11:15:19;;;;;;;14.07;4.53;;;0.70;99.90;;;;;;5076875;28;20440;-81
2024/01/11 11:17:46;;;;;;;4.17;3.50;;;0.70;99.90;;;;;;5076396;28;20498;-80
2024/01/11 11:20:13;;;;;;;13.50;5.43;;;0.70;99.90;;;;;;5077502;28;20449;-80
2024/01/11 11:22:42;;;;;;;6.37;2.87;;;0.70;99.90;;;;;;5077927;28;20494;-80
2024/01/11 11:25:10;;;;;;;6.67;3.80;;;0.70;99.90;;;;;;5076680;28;20441;-80
2024/01/11 11:27:37;;;;;;;12.33;5.73;;;1.50;99.90;;;;;;5077283;28;20506;-80
2024/01/11 11:30:05;;;;;;;6.00;2.43;;;0.60;99.90;;;;;;5079609;28;20448;-80
2024/01/11 11:32:44;;;;;;;3.60;3.00;;;0.60;99.90;;;;;;5082607;28;20448;-80
2024/01/11 11:35:11;;;;;;;3.03;2.60;;;0.60;99.90;;;;;;5081150;28;20417;-80
2024/01/11 11:37:38;;;;;;;4.57;4.17;;;0.60;99.90;;;;;;5079894;28;20433;-80
2024/01/11 11:40:06;;;;;;;9.80;3.33;;;0.60;99.90;;;;;;5079510;28;20513;-80
2024/01/11 11:42:34;;;;;;;6.27;4.10;;;0.60;99.90;;;;;;5078874;28;20437;-80
2024/01/11 11:45:01;;;;;;;6.00;4.00;;;0.60;99.90;;;;;;5078787;28;20451;-80
2024/01/11 11:47:35;;;;;;;9.47;4.17;;;0.60;99.90;;;;;;5078672;28;20817;-80
2024/01/11 11:50:09;;;;;;;2.80;2.57;;;0.60;99.90;;;;;;5079108;28;20429;-80
2024/01/11 11:52:37;;;;;;;11.53;4.17;;;0.70;99.90;;;;;;5079181;28;20524;-79
2024/01/11 11:55:07;;;;;;;8.50;3.90;;;0.70;99.90;;;;;;5078686;28;20461;-80
2024/01/11 11:57:35;;;;;;;7.90;3.37;;;0.70;99.90;;;;;;5078315;28;20530;-80
2024/01/11 12:00:05;;;;;;;9.77;3.50;;;0.60;99.90;;;;;;5078174;28;20445;-79
2024/01/11 12:02:35;;;;;;;5.87;3.40;;;0.60;99.90;;;;;;5078169;28;20426;-80
2024/01/11 12:05:03;;;;;;;2.93;2.67;;;0.60;99.90;;;;;;5080060;28;20453;-81
2024/01/11 12:07:32;;;;;;;11.07;3.67;;;0.60;99.90;;;;;;5082385;28;20488;-80
2024/01/11 12:09:59;;;;;;;3.00;2.40;;;0.60;99.90;;;;;;5083716;28;20449;-80
2024/01/11 12:12:26;;;;;;;6.63;2.70;;;0.60;99.90;;;;;;5083084;28;20480;-80
2024/01/11 12:14:54;;;;;;;7.63;3.73;;;0.50;99.90;;;;;;5082718;28;20949;-80
2024/01/11 12:17:21;;;;;;;11.93;4.43;;;0.60;99.90;;;;;;5082848;28;20445;-80
2024/01/11 12:19:48;;;;;;;9.73;3.30;;;0.50;99.90;;;;;;5081977;28;20469;-80
2024/01/11 12:22:15;;;;;;;14.13;3.50;;;0.50;99.90;;;;;;5082671;28;20449;-80
2024/01/11 12:24:43;;;;;;;7.57;4.97;;;0.50;99.90;;;;;;5082289;28;20445;-79
2024/01/11 12:27:10;;;;;;;4.20;2.30;;;0.50;99.90;;;;;;5082587;28;20415;-80
2024/01/11 12:29:36;;;;;;;6.50;3.23;;;0.40;99.90;;;;;;5082173;28;20472;-80
2024/01/11 12:32:04;;;;;;;10.60;3.50;;;0.40;99.90;;;;;;5081520;28;20485;-80
2024/01/11 12:34:32;;;;;;;3.37;2.70;;;0.40;99.90;;;;;;5081777;28;20453;-80
2024/01/11 12:37:00;;;;;;;10.23;3.87;;;0.30;99.90;;;;;;5081713;28;20495;-80
2024/01/11 12:39:27;;;;;;;12.00;4.40;;;0.40;99.90;;;;;;5082229;28;20567;-80
2024/01/11 12:41:57;;;;;;;6.43;3.50;;;0.40;99.90;;;;;;5080951;28;20437;-80
2024/01/11 12:44:24;;;;;;;5.80;3.93;;;0.40;99.90;;;;;;5082203;28;20441;-80
2024/01/11 12:46:52;;;;;;;11.07;4.50;;;0.30;99.90;;;;;;5081709;28;20453;-79
2024/01/11 12:49:19;;;;;;;7.17;2.70;;;0.40;99.90;;;;;;5081235;28;21048;-80